createdAt,value
2022-09-30T00:02:01.595Z,100392.00
2022-09-30T00:04:30.491Z,100394.00
2022-09-30T00:06:59.193Z,100394.40
2022-09-30T00:09:29.034Z,100394.20
2022-09-30T00:11:57.883Z,100393.40
2022-09-30T00:14:26.673Z,100396.20
2022-09-30T00:16:55.361Z,100399.80
2022-09-30T00:19:24.397Z,100403.40
2022-09-30T00:21:53.410Z,100405.20
2022-09-30T00:24:22.371Z,100406.00
2022-09-30T00:26:51.281Z,100406.40
2022-09-30T00:29:20.533Z,100409.20
2022-09-30T00:31:49.603Z,100407.00
2022-09-30T00:34:20.160Z,100405.60
2022-09-30T00:36:52.152Z,100403.20
2022-09-30T00:39:29.801Z,100406.00
2022-09-30T00:42:03.039Z,100399.80
2022-09-30T00:44:52.386Z,100409.80
2022-09-30T00:47:52.514Z,100404.80
2022-09-30T00:50:26.932Z,100406.60
2022-09-30T00:53:30.743Z,100407.60
2022-09-30T00:56:10.368Z,100411.80
2022-09-30T00:59:03.347Z,100406.60
2022-09-30T01:01:33.398Z,100407.80
2022-09-30T01:04:10.444Z,100411.00
2022-09-30T01:06:39.029Z,100416.80
2022-09-30T01:09:09.301Z,100419.60
2022-09-30T01:11:38.193Z,100421.00
2022-09-30T01:14:17.795Z,100423.40
2022-09-30T01:17:26.310Z,100425.60
2022-09-30T01:20:49.473Z,100425.00
2022-09-30T01:23:43.045Z,100421.60
2022-09-30T01:27:07.334Z,100417.60
2022-09-30T01:29:51.893Z,100416.80
2022-09-30T01:33:05.637Z,100416.40
2022-09-30T01:36:25.727Z,100417.00
2022-09-30T01:39:25.544Z,100420.20
2022-09-30T01:42:28.227Z,100415.00
2022-09-30T01:45:04.187Z,100415.20
2022-09-30T01:48:10.617Z,100414.80
2022-09-30T01:50:50.123Z,100416.40
2022-09-30T01:53:50.124Z,100415.40
2022-09-30T01:56:39.396Z,100425.60
2022-09-30T01:59:33.840Z,100427.40
2022-09-30T02:02:15.949Z,100436.20
2022-09-30T02:04:53.247Z,100438.20
2022-09-30T02:07:37.127Z,100442.80
2022-09-30T02:10:25.154Z,100441.00
2022-09-30T02:13:31.679Z,100444.00
2022-09-30T02:16:13.405Z,100440.40
2022-09-30T02:18:58.394Z,100439.60
2022-09-30T02:21:35.890Z,100442.00
2022-09-30T02:24:12.562Z,100443.20
2022-09-30T02:26:46.524Z,100444.00
2022-09-30T02:29:28.013Z,100440.00
2022-09-30T02:32:08.930Z,100437.80
2022-09-30T02:35:12.896Z,100441.00
2022-09-30T02:37:52.695Z,100439.20
2022-09-30T02:40:52.302Z,100440.80
2022-09-30T02:43:21.726Z,100442.20
2022-09-30T02:46:01.047Z,100441.20
2022-09-30T02:48:46.623Z,100440.40
2022-09-30T02:52:06.205Z,100444.80
2022-09-30T02:55:06.431Z,100445.20
2022-09-30T02:57:49.886Z,100447.80
2022-09-30T03:00:18.858Z,100456.00
2022-09-30T03:02:49.505Z,100454.40
2022-09-30T03:05:18.483Z,100460.80
2022-09-30T03:07:47.072Z,100466.60
2022-09-30T03:10:19.646Z,100463.40
2022-09-30T03:13:34.524Z,100471.20
2022-09-30T03:16:09.817Z,100474.20
2022-09-30T03:19:15.409Z,100471.60
2022-09-30T03:22:14.715Z,100472.20
2022-09-30T03:24:57.123Z,100472.80
2022-09-30T03:28:10.764Z,100474.60
2022-09-30T03:31:14.194Z,100472.40
2022-09-30T03:34:19.818Z,100470.00
2022-09-30T03:37:08.866Z,100477.20
2022-09-30T03:40:11.869Z,100485.00
2022-09-30T03:42:53.056Z,100494.00
2022-09-30T03:45:58.709Z,100493.00
2022-09-30T03:48:30.707Z,100494.00
2022-09-30T03:51:00.178Z,100491.20
2022-09-30T03:53:28.864Z,100497.00
2022-09-30T03:55:57.347Z,100493.40
2022-09-30T03:58:25.933Z,100495.00
2022-09-30T04:00:57.263Z,100498.60
2022-09-30T04:03:28.228Z,100507.20
2022-09-30T04:05:56.803Z,100505.60
2022-09-30T04:08:25.388Z,100505.00
2022-09-30T04:10:53.870Z,100492.60
2022-09-30T04:13:22.352Z,100491.60
2022-09-30T04:15:55.472Z,100488.60
2022-09-30T04:18:25.091Z,100495.00
2022-09-30T04:20:54.046Z,100499.40
2022-09-30T04:23:22.630Z,100505.60
2022-09-30T04:25:57.050Z,100511.60
2022-09-30T04:28:25.635Z,100506.20
2022-09-30T04:30:54.219Z,100515.20
2022-09-30T04:33:22.805Z,100521.20
2022-09-30T04:35:55.653Z,100527.40
2022-09-30T04:38:25.242Z,100535.40
2022-09-30T04:40:55.008Z,100539.60
2022-09-30T04:43:25.237Z,100545.40
2022-09-30T04:45:54.158Z,100547.60
2022-09-30T04:48:23.017Z,100548.80
2022-09-30T04:50:51.910Z,100548.20
2022-09-30T04:53:20.596Z,100549.20
2022-09-30T04:55:49.076Z,100553.00
2022-09-30T04:58:17.661Z,100555.00
2022-09-30T05:00:46.174Z,100559.00
2022-09-30T05:03:15.341Z,100567.40
2022-09-30T05:05:46.125Z,100557.80
2022-09-30T05:08:15.890Z,100559.60
2022-09-30T05:10:44.370Z,100562.80
2022-09-30T05:13:13.057Z,100562.60
2022-09-30T05:15:41.539Z,100560.00
2022-09-30T05:18:10.123Z,100568.40
2022-09-30T05:20:38.604Z,100574.80
2022-09-30T05:23:07.496Z,100580.40
2022-09-30T05:25:36.600Z,100589.60
2022-09-30T05:28:05.075Z,100589.60
2022-09-30T05:30:33.558Z,100594.80
2022-09-30T05:33:02.040Z,100596.00
2022-09-30T05:35:30.726Z,100599.60
2022-09-30T05:38:01.467Z,100602.40
2022-09-30T05:40:30.117Z,100600.00
2022-09-30T05:43:00.485Z,100595.80
2022-09-30T05:45:29.059Z,100598.40
2022-09-30T05:47:58.051Z,100608.60
2022-09-30T05:50:27.381Z,100615.00
2022-09-30T05:52:57.168Z,100615.40
2022-09-30T05:55:25.954Z,100612.40
2022-09-30T05:57:54.539Z,100614.00
2022-09-30T06:00:23.127Z,100613.00
2022-09-30T06:02:52.872Z,100611.20
2022-09-30T06:05:22.449Z,100608.20
2022-09-30T06:07:51.441Z,100606.80
2022-09-30T06:10:19.919Z,100604.60
2022-09-30T06:12:48.608Z,100604.60
2022-09-30T06:15:17.190Z,100598.00
2022-09-30T06:17:47.207Z,100592.20
2022-09-30T06:20:17.328Z,100583.80
2022-09-30T06:22:45.810Z,100583.00
2022-09-30T06:25:15.008Z,100577.80
2022-09-30T06:27:47.791Z,100576.20
2022-09-30T06:30:16.421Z,100575.20
2022-09-30T06:32:45.575Z,100573.00
2022-09-30T06:35:14.269Z,100567.80
2022-09-30T06:37:44.690Z,100565.20
2022-09-30T06:40:13.187Z,100563.00
2022-09-30T06:42:42.267Z,100557.80
2022-09-30T06:45:18.013Z,100558.40
2022-09-30T06:48:00.231Z,100551.20
2022-09-30T06:50:31.999Z,100544.80
2022-09-30T06:53:08.656Z,100535.20
2022-09-30T06:55:39.196Z,100526.60
2022-09-30T06:58:16.948Z,100525.20
2022-09-30T07:00:45.651Z,100519.20
2022-09-30T07:03:32.282Z,100517.40
2022-09-30T07:06:04.758Z,100513.40
2022-09-30T07:08:36.501Z,100513.40
2022-09-30T07:11:14.691Z,100517.00
2022-09-30T07:13:47.969Z,100519.20
2022-09-30T07:16:19.432Z,100523.00
2022-09-30T07:18:47.958Z,100523.40
2022-09-30T07:21:16.951Z,100524.60
2022-09-30T07:23:48.235Z,100533.20
2022-09-30T07:26:20.584Z,100531.60
2022-09-30T07:28:50.795Z,100538.80
2022-09-30T07:31:40.040Z,100542.40
2022-09-30T07:34:09.771Z,100547.20
2022-09-30T07:36:41.994Z,100541.20
2022-09-30T07:39:11.446Z,100545.80
2022-09-30T07:41:41.191Z,100538.00
2022-09-30T07:44:14.945Z,100535.00
2022-09-30T07:46:45.192Z,100534.40
2022-09-30T07:49:24.816Z,100534.20
2022-09-30T07:51:57.677Z,100534.60
2022-09-30T07:54:31.022Z,100537.20
2022-09-30T07:57:10.874Z,100544.20
2022-09-30T07:59:42.460Z,100542.60
2022-09-30T08:02:19.882Z,100539.00
2022-09-30T08:04:48.698Z,100544.60
2022-09-30T08:07:18.515Z,100546.00
2022-09-30T08:09:47.267Z,100545.20
2022-09-30T08:12:16.497Z,100546.00
2022-09-30T08:14:45.658Z,100549.80
2022-09-30T08:17:14.381Z,100557.00
2022-09-30T08:19:45.028Z,100563.00
2022-09-30T08:22:15.344Z,100557.00
2022-09-30T08:24:44.134Z,100559.80
2022-09-30T08:27:12.784Z,100560.40
2022-09-30T08:29:59.192Z,100564.80
2022-09-30T08:32:33.202Z,100568.20
2022-09-30T08:35:01.716Z,100566.40
2022-09-30T08:37:30.300Z,100568.20
2022-09-30T08:39:58.984Z,100578.60
2022-09-30T08:42:57.667Z,100572.60
2022-09-30T08:45:52.793Z,100582.80
2022-09-30T08:48:36.933Z,100589.40
2022-09-30T08:51:25.228Z,100583.20
2022-09-30T08:53:55.449Z,100587.00
2022-09-30T08:56:32.250Z,100585.80
2022-09-30T08:59:23.777Z,100586.40
2022-09-30T09:01:59.931Z,100583.60
2022-09-30T09:04:28.705Z,100581.00
2022-09-30T09:07:34.091Z,100588.60
2022-09-30T09:10:19.060Z,100586.80
2022-09-30T09:13:14.269Z,100585.00
2022-09-30T09:15:55.141Z,100592.80
2022-09-30T09:18:34.276Z,100593.00
2022-09-30T09:21:40.534Z,100598.40
2022-09-30T09:24:24.276Z,100600.00
2022-09-30T09:26:58.923Z,100609.00
2022-09-30T09:30:06.088Z,100611.60
2022-09-30T09:32:36.871Z,100605.60
2022-09-30T09:35:47.935Z,100606.80
2022-09-30T09:39:12.602Z,100608.40
2022-09-30T09:42:05.862Z,100603.60
2022-09-30T09:44:48.479Z,100597.60
2022-09-30T09:47:17.672Z,100595.00
2022-09-30T09:50:15.235Z,100597.20
2022-09-30T09:53:09.111Z,100609.60
2022-09-30T09:55:38.822Z,100607.60
2022-09-30T09:58:14.141Z,100606.80
2022-09-30T10:00:46.027Z,100604.00
2022-09-30T10:03:24.239Z,100604.80
2022-09-30T10:06:13.145Z,100606.40
2022-09-30T10:08:56.525Z,100605.80
2022-09-30T10:11:29.437Z,100602.60
2022-09-30T10:14:00.839Z,100603.80
2022-09-30T10:16:38.360Z,100598.80
2022-09-30T10:19:28.177Z,100601.00
2022-09-30T10:22:08.905Z,100596.40
2022-09-30T10:24:40.096Z,100597.20
2022-09-30T10:27:33.142Z,100601.40
2022-09-30T10:30:02.421Z,100605.60
2022-09-30T10:32:32.013Z,100601.60
2022-09-30T10:35:16.778Z,100610.40
2022-09-30T10:37:56.289Z,100610.60
2022-09-30T10:40:30.780Z,100608.20
2022-09-30T10:42:59.425Z,100605.80
2022-09-30T10:45:38.837Z,100601.80
2022-09-30T10:48:19.119Z,100605.60
2022-09-30T10:50:56.079Z,100603.40
2022-09-30T10:53:29.922Z,100604.60
2022-09-30T10:55:58.901Z,100605.40
2022-09-30T11:01:52.598Z,100608.60
2022-09-30T11:04:42.009Z,100606.60
2022-09-30T11:07:26.887Z,100609.60
2022-09-30T11:10:01.528Z,100615.80
2022-09-30T11:12:45.396Z,100614.00
2022-09-30T11:15:29.238Z,100612.40
2022-09-30T11:18:26.090Z,100607.80
2022-09-30T11:21:00.908Z,100607.20
2022-09-30T11:23:41.275Z,100609.40
2022-09-30T11:26:38.530Z,100600.40
2022-09-30T11:30:08.759Z,100598.20
2022-09-30T11:33:17.483Z,100599.40
2022-09-30T11:36:31.943Z,100591.80
2022-09-30T11:39:37.903Z,100596.60
2022-09-30T11:42:26.690Z,100594.80
2022-09-30T11:45:24.577Z,100592.40
2022-09-30T11:48:44.211Z,100598.80
2022-09-30T11:51:49.933Z,100600.40
2022-09-30T11:54:33.603Z,100597.20
2022-09-30T11:57:17.184Z,100600.40
2022-09-30T12:00:08.602Z,100597.60
2022-09-30T12:02:59.682Z,100596.20
2022-09-30T12:05:36.342Z,100595.60
2022-09-30T12:09:15.685Z,100591.60
2022-09-30T12:12:10.240Z,100593.60
2022-09-30T12:15:01.746Z,100596.60
2022-09-30T12:17:55.670Z,100599.20
2022-09-30T12:20:43.818Z,100602.20
2022-09-30T12:23:41.177Z,100605.20
2022-09-30T12:26:13.105Z,100603.80
2022-09-30T12:29:12.448Z,100605.40
2022-09-30T12:32:09.694Z,100603.20
2022-09-30T12:35:50.169Z,100601.40
2022-09-30T12:39:14.459Z,100600.80
2022-09-30T12:42:08.948Z,100596.40
2022-09-30T12:44:46.545Z,100596.60
2022-09-30T12:47:24.856Z,100593.60
2022-09-30T12:49:57.828Z,100603.40
2022-09-30T12:52:31.837Z,100604.80
2022-09-30T12:55:31.758Z,100607.40
2022-09-30T12:58:02.046Z,100606.40
2022-09-30T13:00:35.025Z,100608.80
2022-09-30T13:03:18.426Z,100603.20
2022-09-30T13:05:53.820Z,100601.20
2022-09-30T13:08:37.086Z,100602.80
2022-09-30T13:11:08.238Z,100599.60
2022-09-30T13:14:13.985Z,100600.20
2022-09-30T13:17:07.348Z,100596.40
2022-09-30T13:19:53.648Z,100592.20
2022-09-30T13:22:24.382Z,100601.80
2022-09-30T13:25:03.410Z,100603.60
2022-09-30T13:27:40.086Z,100603.80
2022-09-30T13:30:17.271Z,100606.00
2022-09-30T13:33:26.199Z,100606.20
2022-09-30T13:35:59.454Z,100601.60
2022-09-30T13:38:39.298Z,100596.20
2022-09-30T13:41:26.207Z,100599.20
2022-09-30T13:44:16.971Z,100600.80
2022-09-30T13:46:59.670Z,100602.40
2022-09-30T13:49:53.445Z,100604.80
2022-09-30T13:52:31.648Z,100602.20
2022-09-30T13:55:15.292Z,100603.80
2022-09-30T13:57:53.706Z,100604.20
2022-09-30T14:00:25.085Z,100605.80
2022-09-30T14:03:17.970Z,100610.60
2022-09-30T14:06:34.851Z,100609.20
2022-09-30T14:09:25.631Z,100616.00
2022-09-30T14:12:29.483Z,100621.80
2022-09-30T14:15:27.866Z,100617.20
2022-09-30T14:18:05.730Z,100616.20
2022-09-30T14:21:14.349Z,100617.40
2022-09-30T14:23:43.340Z,100619.80
2022-09-30T14:26:27.695Z,100619.40
2022-09-30T14:29:34.780Z,100615.80
2022-09-30T14:32:18.969Z,100616.60
2022-09-30T14:34:49.324Z,100614.40
2022-09-30T14:37:37.233Z,100614.00
2022-09-30T14:40:16.326Z,100619.80
2022-09-30T14:42:48.837Z,100627.60
2022-09-30T14:45:37.287Z,100630.80
2022-09-30T14:48:12.584Z,100629.20
2022-09-30T14:50:51.472Z,100626.60
2022-09-30T14:53:35.547Z,100631.40
2022-09-30T14:56:30.359Z,100639.80
2022-09-30T14:59:01.274Z,100641.40
2022-09-30T15:01:35.947Z,100632.20
2022-09-30T15:04:20.792Z,100633.40
2022-09-30T15:06:53.025Z,100636.20
2022-09-30T15:09:34.255Z,100645.20
2022-09-30T15:12:22.839Z,100639.40
2022-09-30T15:14:55.141Z,100639.40
2022-09-30T15:17:28.367Z,100636.60
2022-09-30T15:19:59.655Z,100638.40
2022-09-30T15:22:31.019Z,100637.60
2022-09-30T15:25:01.830Z,100639.80
2022-09-30T15:27:37.897Z,100646.80
2022-09-30T15:30:17.587Z,100644.60
2022-09-30T15:32:51.329Z,100651.80
2022-09-30T15:35:24.353Z,100654.00
2022-09-30T15:37:54.090Z,100659.40
2022-09-30T15:40:44.077Z,100657.00
2022-09-30T15:43:18.878Z,100655.20
2022-09-30T15:45:58.954Z,100655.20
2022-09-30T15:48:36.781Z,100656.00
2022-09-30T15:51:44.853Z,100658.40
2022-09-30T15:54:35.452Z,100657.40
2022-09-30T15:57:48.929Z,100656.20
2022-09-30T16:00:41.837Z,100658.20
2022-09-30T16:03:20.960Z,100662.00
2022-09-30T16:05:53.850Z,100661.80
2022-09-30T16:08:33.140Z,100655.00
2022-09-30T16:11:07.791Z,100658.80
2022-09-30T16:13:43.777Z,100656.00
2022-09-30T16:16:27.025Z,100658.60
2022-09-30T16:18:58.310Z,100662.20
2022-09-30T16:21:45.103Z,100655.80
2022-09-30T16:24:22.571Z,100665.00
2022-09-30T16:27:00.190Z,100665.40
2022-09-30T16:29:29.297Z,100668.00
2022-09-30T16:31:58.516Z,100670.20
2022-09-30T16:34:30.327Z,100669.20
2022-09-30T16:37:19.177Z,100670.40
2022-09-30T16:39:48.516Z,100667.80
2022-09-30T16:42:19.832Z,100664.60
2022-09-30T16:44:48.459Z,100665.40
2022-09-30T16:47:21.263Z,100669.40
2022-09-30T16:49:51.822Z,100669.60
2022-09-30T16:52:20.550Z,100668.20
2022-09-30T16:54:49.508Z,100666.60
2022-09-30T16:57:18.702Z,100670.00
2022-09-30T16:59:47.795Z,100668.00
2022-09-30T17:02:16.836Z,100672.20
2022-09-30T17:04:47.217Z,100676.80
2022-09-30T17:07:16.213Z,100674.20
2022-09-30T17:09:45.364Z,100678.40
2022-09-30T17:12:14.189Z,100678.00
2022-09-30T17:14:44.315Z,100678.20
2022-09-30T17:17:13.998Z,100682.80
2022-09-30T17:19:42.920Z,100682.00
2022-09-30T17:22:12.014Z,100679.20
2022-09-30T17:24:41.002Z,100690.60
2022-09-30T17:27:10.000Z,100690.60
2022-09-30T17:29:42.045Z,100690.80
2022-09-30T17:32:11.184Z,100694.80
2022-09-30T17:34:41.690Z,100699.60
2022-09-30T17:37:10.581Z,100699.40
2022-09-30T17:39:39.173Z,100696.20
2022-09-30T17:42:34.678Z,100693.20
2022-09-30T17:45:04.190Z,100701.20
2022-09-30T17:47:33.387Z,100697.20
2022-09-30T17:50:04.222Z,100700.60
2022-09-30T17:52:34.609Z,100700.20
2022-09-30T17:55:03.541Z,100700.80
2022-09-30T17:57:40.306Z,100698.60
2022-09-30T18:00:10.024Z,100701.80
2022-09-30T18:02:41.049Z,100703.60
2022-09-30T18:05:09.686Z,100703.80
2022-09-30T18:07:38.333Z,100706.80
2022-09-30T18:10:11.363Z,100710.60
2022-09-30T18:12:40.212Z,100716.80
2022-09-30T18:15:10.102Z,100714.00
2022-09-30T18:17:38.607Z,100712.40
2022-09-30T18:20:08.357Z,100717.00
2022-09-30T18:22:37.006Z,100717.60
2022-09-30T18:25:23.819Z,100720.00
2022-09-30T18:27:58.314Z,100720.60
2022-09-30T18:30:27.538Z,100721.00
2022-09-30T18:32:57.412Z,100722.80
2022-09-30T18:35:26.137Z,100719.60
2022-09-30T18:37:54.823Z,100715.80
2022-09-30T18:40:26.592Z,100718.60
2022-09-30T18:42:58.811Z,100715.20
2022-09-30T18:45:30.538Z,100716.60
2022-09-30T18:48:00.836Z,100715.80
2022-09-30T18:50:30.935Z,100713.80
2022-09-30T18:53:03.627Z,100719.40
2022-09-30T18:55:36.007Z,100717.20
2022-09-30T18:58:04.589Z,100719.40
2022-09-30T19:00:33.600Z,100725.80
2022-09-30T19:03:02.164Z,100722.60
2022-09-30T19:05:30.953Z,100725.40
2022-09-30T19:07:59.639Z,100724.40
2022-09-30T19:10:28.328Z,100726.80
2022-09-30T19:12:56.909Z,100726.00
2022-09-30T19:15:25.492Z,100722.40
2022-09-30T19:17:54.081Z,100724.40
2022-09-30T19:20:23.525Z,100721.20
2022-09-30T19:22:52.277Z,100724.40
2022-09-30T19:25:21.095Z,100720.20
2022-09-30T19:27:50.217Z,100712.60
2022-09-30T19:30:21.219Z,100721.60
2022-09-30T19:32:53.667Z,100722.80
2022-09-30T19:35:35.031Z,100719.80
2022-09-30T19:38:06.911Z,100719.60
2022-09-30T19:40:35.502Z,100717.00
2022-09-30T19:43:04.083Z,100719.00
2022-09-30T19:45:33.216Z,100710.80
2022-09-30T19:48:02.066Z,100716.80
2022-09-30T19:50:30.752Z,100709.00
2022-09-30T19:52:59.438Z,100711.20
2022-09-30T19:55:28.251Z,100712.00
2022-09-30T19:57:57.117Z,100709.60
2022-09-30T20:00:25.906Z,100709.60
2022-09-30T20:02:54.694Z,100709.40
2022-09-30T20:05:23.995Z,100710.20
2022-09-30T20:07:52.681Z,100704.60
2022-09-30T20:10:21.266Z,100702.60
2022-09-30T20:12:49.953Z,100706.40
2022-09-30T20:15:37.468Z,100700.40
2022-09-30T20:18:06.169Z,100707.80
2022-09-30T20:20:34.754Z,100705.40
2022-09-30T20:23:04.466Z,100703.00
2022-09-30T20:25:35.510Z,100698.80
2022-09-30T20:28:05.489Z,100699.60
2022-09-30T20:30:45.755Z,100703.20
2022-09-30T20:33:20.843Z,100705.60
2022-09-30T20:35:49.501Z,100706.20
2022-09-30T20:38:25.215Z,100703.20
2022-09-30T20:40:59.161Z,100704.20
2022-09-30T20:43:32.512Z,100705.20
2022-09-30T20:46:08.548Z,100703.80
2022-09-30T20:48:39.509Z,100710.80
2022-09-30T20:51:11.442Z,100715.20
2022-09-30T20:53:40.614Z,100713.40
2022-09-30T20:56:12.248Z,100715.20
2022-09-30T20:58:41.465Z,100715.00
2022-09-30T21:01:18.779Z,100711.60
2022-09-30T21:03:50.892Z,100711.40
2022-09-30T21:06:30.463Z,100720.60
2022-09-30T21:09:02.524Z,100726.80
2022-09-30T21:11:32.297Z,100726.60
2022-09-30T21:14:01.865Z,100721.20
2022-09-30T21:16:32.315Z,100726.40
2022-09-30T21:19:01.366Z,100725.80
2022-09-30T21:21:30.822Z,100729.40
2022-09-30T21:24:00.424Z,100727.20
2022-09-30T21:26:30.291Z,100728.40
2022-09-30T21:29:00.411Z,100721.00
2022-09-30T21:31:29.454Z,100721.80
2022-09-30T21:34:00.424Z,100721.40
2022-09-30T21:36:29.952Z,100720.00
2022-09-30T21:39:03.021Z,100712.60
2022-09-30T21:41:33.798Z,100713.00
2022-09-30T21:44:04.559Z,100709.80
2022-09-30T21:46:35.144Z,100710.00
2022-09-30T21:49:15.397Z,100710.00
2022-09-30T21:51:44.529Z,100704.40
2022-09-30T21:54:14.263Z,100706.20
2022-09-30T21:56:44.472Z,100706.20
2022-09-30T21:59:13.549Z,100702.00
2022-09-30T22:01:42.322Z,100701.00
2022-09-30T22:04:11.405Z,100702.60
2022-09-30T22:06:40.500Z,100700.00
2022-09-30T22:09:09.084Z,100701.40
2022-09-30T22:11:37.974Z,100698.60
2022-09-30T22:14:06.984Z,100699.60
2022-09-30T22:16:36.297Z,100693.80
2022-09-30T22:19:07.783Z,100698.80
2022-09-30T22:21:38.248Z,100695.40
2022-09-30T22:24:12.158Z,100699.00
2022-09-30T22:26:41.764Z,100693.00
2022-09-30T22:29:12.333Z,100695.40
2022-09-30T22:31:40.978Z,100696.20
2022-09-30T22:34:32.618Z,100697.20
2022-09-30T22:37:19.928Z,100695.40
2022-09-30T22:39:48.511Z,100693.60
2022-09-30T22:42:18.430Z,100695.00
2022-09-30T22:44:48.341Z,100693.40
2022-09-30T22:47:17.436Z,100696.20
2022-09-30T22:49:47.460Z,100692.60
2022-09-30T22:52:16.548Z,100700.80
2022-09-30T22:54:45.133Z,100700.40
2022-09-30T22:57:13.818Z,100706.20
2022-09-30T22:59:43.187Z,100703.20
2022-09-30T23:02:12.059Z,100705.40
2022-09-30T23:04:40.903Z,100705.00
2022-09-30T23:07:10.723Z,100705.20
2022-09-30T23:09:39.400Z,100706.80
2022-09-30T23:12:08.395Z,100709.20
2022-09-30T23:14:36.980Z,100709.40
2022-09-30T23:17:06.073Z,100702.60
2022-09-30T23:19:34.965Z,100705.40
2022-09-30T23:22:03.628Z,100705.80
2022-09-30T23:24:32.543Z,100705.80
2022-09-30T23:27:01.123Z,100705.40
2022-09-30T23:29:29.808Z,100709.60
2022-09-30T23:31:58.423Z,100708.60
2022-09-30T23:34:27.388Z,100703.20
2022-09-30T23:36:56.482Z,100702.20
2022-09-30T23:39:25.372Z,100699.80
2022-09-30T23:41:54.198Z,100707.40
2022-09-30T23:44:24.915Z,100704.80
2022-09-30T23:47:12.117Z,100704.80
2022-09-30T23:49:43.465Z,100707.80
2022-09-30T23:52:13.709Z,100710.00
2022-09-30T23:54:43.665Z,100705.60
2022-09-30T23:57:12.696Z,100702.00
2022-09-30T23:59:41.282Z,100699.00
